Terminal Aerodrome Forecast
Issued by NWS

Home | Current Version | Previous Version | Graphics & Text | Print | Product List | Glossary On
Versions: 1 2 3 4 5 6 7 8 9 10 11 12 13 14 15 16 17 18 19 20 21
000
FTUS43 KABR 221140
TAFATY
TAF
KATY 221140Z 2212/2312 16015KT P6SM SCT070 WS020/18045KT
     FM221400 17020G30KT P6SM BKN050
     FM230300 17016KT P6SM VCSH OVC040
     FM230600 18016KT P6SM -SHRA VCTS OVC015CB=

USA.gov is the U.S. government's official web portal to all federal, state and local government web resources and services.